sensor_id;sensor_type;location;lat;lon;timestamp;P1;durP1;ratioP1;P2;durP2;ratioP2
33792;SDS011;20105;48.764;9.178;2022-09-13T00:00:51;2.00;;;1.60;;
33792;SDS011;20105;48.764;9.178;2022-09-13T00:03:17;1.80;;;1.70;;
33792;SDS011;20105;48.764;9.178;2022-09-13T00:05:44;2.03;;;1.47;;
33792;SDS011;20105;48.764;9.178;2022-09-13T00:08:09;1.87;;;1.60;;
33792;SDS011;20105;48.764;9.178;2022-09-13T00:10:36;2.33;;;1.40;;
33792;SDS011;20105;48.764;9.178;2022-09-13T00:13:04;1.73;;;1.63;;
33792;SDS011;20105;48.764;9.178;2022-09-13T00:15:30;3.23;;;2.93;;
33792;SDS011;20105;48.764;9.178;2022-09-13T00:17:56;1.97;;;1.80;;
33792;SDS011;20105;48.764;9.178;2022-09-13T00:20:22;2.03;;;1.83;;
33792;SDS011;20105;48.764;9.178;2022-09-13T00:22:48;5.37;;;1.77;;
33792;SDS011;20105;48.764;9.178;2022-09-13T00:25:14;2.30;;;1.93;;
33792;SDS011;20105;48.764;9.178;2022-09-13T00:27:40;3.87;;;2.80;;
33792;SDS011;20105;48.764;9.178;2022-09-13T00:30:06;1.80;;;1.70;;
33792;SDS011;20105;48.764;9.178;2022-09-13T00:32:32;2.03;;;1.60;;
33792;SDS011;20105;48.764;9.178;2022-09-13T00:34:59;1.70;;;1.60;;
33792;SDS011;20105;48.764;9.178;2022-09-13T00:37:25;2.50;;;2.30;;
33792;SDS011;20105;48.764;9.178;2022-09-13T00:39:51;2.43;;;2.27;;
33792;SDS011;20105;48.764;9.178;2022-09-13T00:42:16;1.67;;;1.57;;
33792;SDS011;20105;48.764;9.178;2022-09-13T00:47:14;3.13;;;1.87;;
33792;SDS011;20105;48.764;9.178;2022-09-13T00:49:47;1.50;;;1.40;;
33792;SDS011;20105;48.764;9.178;2022-09-13T00:52:16;2.33;;;1.47;;
33792;SDS011;20105;48.764;9.178;2022-09-13T00:54:46;1.73;;;1.63;;
33792;SDS011;20105;48.764;9.178;2022-09-13T00:57:17;2.90;;;1.80;;
33792;SDS011;20105;48.764;9.178;2022-09-13T00:59:48;2.23;;;1.73;;
33792;SDS011;20105;48.764;9.178;2022-09-13T01:02:19;1.63;;;1.53;;
33792;SDS011;20105;48.764;9.178;2022-09-13T01:04:45;3.30;;;1.40;;
33792;SDS011;20105;48.764;9.178;2022-09-13T01:07:11;1.40;;;1.30;;
33792;SDS011;20105;48.764;9.178;2022-09-13T01:09:40;3.23;;;1.60;;
33792;SDS011;20105;48.764;9.178;2022-09-13T01:14:46;3.40;;;1.90;;
33792;SDS011;20105;48.764;9.178;2022-09-13T01:17:12;3.50;;;1.63;;
33792;SDS011;20105;48.764;9.178;2022-09-13T01:19:38;1.70;;;1.30;;
33792;SDS011;20105;48.764;9.178;2022-09-13T01:30:27;2.23;;;1.60;;
33792;SDS011;20105;48.764;9.178;2022-09-13T01:33:15;1.67;;;1.40;;
33792;SDS011;20105;48.764;9.178;2022-09-13T01:41:08;1.80;;;1.60;;
33792;SDS011;20105;48.764;9.178;2022-09-13T01:43:55;2.00;;;1.70;;
33792;SDS011;20105;48.764;9.178;2022-09-13T01:51:39;3.90;;;1.87;;
33792;SDS011;20105;48.764;9.178;2022-09-13T01:57:05;1.45;;;1.35;;
33792;SDS011;20105;48.764;9.178;2022-09-13T02:00:08;4.82;;;1.95;;
33792;SDS011;20105;48.764;9.178;2022-09-13T02:05:44;1.60;;;1.50;;
33792;SDS011;20105;48.764;9.178;2022-09-13T02:08:16;5.05;;;1.50;;
33792;SDS011;20105;48.764;9.178;2022-09-13T02:11:06;1.63;;;1.37;;
33792;SDS011;20105;48.764;9.178;2022-09-13T02:13:42;1.40;;;1.30;;
33792;SDS011;20105;48.764;9.178;2022-09-13T02:16:57;1.50;;;1.40;;
33792;SDS011;20105;48.764;9.178;2022-09-13T02:19:15;5.00;;;1.67;;
33792;SDS011;20105;48.764;9.178;2022-09-13T02:21:50;3.20;;;1.50;;
33792;SDS011;20105;48.764;9.178;2022-09-13T02:24:22;1.60;;;1.50;;
33792;SDS011;20105;48.764;9.178;2022-09-13T02:26:53;1.65;;;1.50;;
33792;SDS011;20105;48.764;9.178;2022-09-13T02:29:22;2.00;;;1.80;;
33792;SDS011;20105;48.764;9.178;2022-09-13T02:32:09;2.15;;;1.65;;
33792;SDS011;20105;48.764;9.178;2022-09-13T02:35:18;1.30;;;1.20;;
33792;SDS011;20105;48.764;9.178;2022-09-13T02:37:51;3.30;;;2.83;;
33792;SDS011;20105;48.764;9.178;2022-09-13T02:40:23;1.75;;;1.55;;
33792;SDS011;20105;48.764;9.178;2022-09-13T02:42:57;1.70;;;1.60;;
33792;SDS011;20105;48.764;9.178;2022-09-13T02:45:30;4.00;;;2.00;;
33792;SDS011;20105;48.764;9.178;2022-09-13T02:48:03;2.53;;;2.27;;
33792;SDS011;20105;48.764;9.178;2022-09-13T02:51:07;1.43;;;1.33;;
33792;SDS011;20105;48.764;9.178;2022-09-13T02:56:24;2.33;;;1.90;;
33792;SDS011;20105;48.764;9.178;2022-09-13T02:59:08;3.03;;;1.60;;
33792;SDS011;20105;48.764;9.178;2022-09-13T03:01:43;1.33;;;1.23;;
33792;SDS011;20105;48.764;9.178;2022-09-13T03:04:13;1.57;;;1.47;;
33792;SDS011;20105;48.764;9.178;2022-09-13T03:06:39;4.53;;;2.17;;
33792;SDS011;20105;48.764;9.178;2022-09-13T03:09:06;2.60;;;1.77;;
33792;SDS011;20105;48.764;9.178;2022-09-13T03:11:40;1.73;;;1.63;;
33792;SDS011;20105;48.764;9.178;2022-09-13T03:20:31;2.20;;;1.50;;
33792;SDS011;20105;48.764;9.178;2022-09-13T03:26:34;1.30;;;1.20;;
33792;SDS011;20105;48.764;9.178;2022-09-13T03:29:17;1.37;;;1.27;;
33792;SDS011;20105;48.764;9.178;2022-09-13T03:31:52;1.60;;;1.50;;
33792;SDS011;20105;48.764;9.178;2022-09-13T03:34:44;5.20;;;1.60;;
33792;SDS011;20105;48.764;9.178;2022-09-13T03:40:14;5.70;;;1.90;;
33792;SDS011;20105;48.764;9.178;2022-09-13T03:42:52;1.70;;;1.60;;
33792;SDS011;20105;48.764;9.178;2022-09-13T03:45:24;2.03;;;1.57;;
33792;SDS011;20105;48.764;9.178;2022-09-13T03:47:52;2.00;;;1.83;;
33792;SDS011;20105;48.764;9.178;2022-09-13T03:50:20;3.00;;;2.67;;
33792;SDS011;20105;48.764;9.178;2022-09-13T03:52:49;2.33;;;1.70;;
33792;SDS011;20105;48.764;9.178;2022-09-13T03:55:20;3.53;;;1.93;;
33792;SDS011;20105;48.764;9.178;2022-09-13T03:57:46;1.87;;;1.77;;
33792;SDS011;20105;48.764;9.178;2022-09-13T04:00:12;1.80;;;1.70;;
33792;SDS011;20105;48.764;9.178;2022-09-13T04:02:39;2.53;;;2.33;;
33792;SDS011;20105;48.764;9.178;2022-09-13T04:05:05;2.67;;;2.07;;
33792;SDS011;20105;48.764;9.178;2022-09-13T04:07:33;2.63;;;2.43;;
33792;SDS011;20105;48.764;9.178;2022-09-13T04:09:58;2.10;;;2.00;;
33792;SDS011;20105;48.764;9.178;2022-09-13T04:14:55;2.10;;;2.00;;
33792;SDS011;20105;48.764;9.178;2022-09-13T04:17:21;2.10;;;2.00;;
33792;SDS011;20105;48.764;9.178;2022-09-13T04:19:47;2.00;;;1.77;;
33792;SDS011;20105;48.764;9.178;2022-09-13T04:22:13;2.70;;;2.50;;
33792;SDS011;20105;48.764;9.178;2022-09-13T04:24:39;3.17;;;1.80;;
33792;SDS011;20105;48.764;9.178;2022-09-13T04:27:07;4.03;;;2.10;;
33792;SDS011;20105;48.764;9.178;2022-09-13T04:29:32;2.80;;;2.13;;
33792;SDS011;20105;48.764;9.178;2022-09-13T04:31:58;6.70;;;2.83;;
33792;SDS011;20105;48.764;9.178;2022-09-13T04:34:24;2.77;;;2.57;;
33792;SDS011;20105;48.764;9.178;2022-09-13T04:36:50;3.97;;;2.13;;
33792;SDS011;20105;48.764;9.178;2022-09-13T04:39:17;2.17;;;1.97;;
33792;SDS011;20105;48.764;9.178;2022-09-13T04:41:44;3.20;;;2.00;;
33792;SDS011;20105;48.764;9.178;2022-09-13T04:44:12;2.13;;;2.00;;
33792;SDS011;20105;48.764;9.178;2022-09-13T04:46:38;2.30;;;2.10;;
33792;SDS011;20105;48.764;9.178;2022-09-13T04:49:03;2.83;;;2.57;;
33792;SDS011;20105;48.764;9.178;2022-09-13T04:51:29;2.53;;;2.33;;
33792;SDS011;20105;48.764;9.178;2022-09-13T04:53:55;2.33;;;2.13;;
33792;SDS011;20105;48.764;9.178;2022-09-13T04:56:21;2.50;;;2.30;;
33792;SDS011;20105;48.764;9.178;2022-09-13T04:58:50;3.00;;;2.30;;
33792;SDS011;20105;48.764;9.178;2022-09-13T05:01:17;4.37;;;2.73;;
33792;SDS011;20105;48.764;9.178;2022-09-13T05:03:43;4.83;;;3.57;;
33792;SDS011;20105;48.764;9.178;2022-09-13T05:06:10;3.07;;;2.63;;
33792;SDS011;20105;48.764;9.178;2022-09-13T05:08:38;2.90;;;2.57;;
33792;SDS011;20105;48.764;9.178;2022-09-13T05:11:04;2.50;;;2.10;;
33792;SDS011;20105;48.764;9.178;2022-09-13T05:13:31;2.80;;;2.60;;
33792;SDS011;20105;48.764;9.178;2022-09-13T05:15:58;2.30;;;2.10;;
33792;SDS011;20105;48.764;9.178;2022-09-13T05:18:29;2.80;;;2.23;;
33792;SDS011;20105;48.764;9.178;2022-09-13T05:20:57;2.70;;;2.27;;
33792;SDS011;20105;48.764;9.178;2022-09-13T05:23:24;2.00;;;1.90;;
33792;SDS011;20105;48.764;9.178;2022-09-13T05:25:52;2.40;;;2.20;;
33792;SDS011;20105;48.764;9.178;2022-09-13T05:28:21;3.00;;;2.50;;
33792;SDS011;20105;48.764;9.178;2022-09-13T05:30:58;2.80;;;2.03;;
33792;SDS011;20105;48.764;9.178;2022-09-13T05:33:30;3.17;;;1.90;;
33792;SDS011;20105;48.764;9.178;2022-09-13T05:35:58;2.57;;;2.37;;
33792;SDS011;20105;48.764;9.178;2022-09-13T05:38:24;3.43;;;2.07;;
33792;SDS011;20105;48.764;9.178;2022-09-13T05:40:56;2.80;;;2.60;;
33792;SDS011;20105;48.764;9.178;2022-09-13T05:43:23;3.03;;;2.83;;
33792;SDS011;20105;48.764;9.178;2022-09-13T05:45:50;3.57;;;2.17;;
33792;SDS011;20105;48.764;9.178;2022-09-13T05:48:16;2.67;;;2.37;;
33792;SDS011;20105;48.764;9.178;2022-09-13T05:50:41;2.83;;;2.63;;
33792;SDS011;20105;48.764;9.178;2022-09-13T05:53:07;3.33;;;2.00;;
33792;SDS011;20105;48.764;9.178;2022-09-13T05:55:33;6.03;;;2.40;;
33792;SDS011;20105;48.764;9.178;2022-09-13T05:58:00;3.90;;;2.50;;
33792;SDS011;20105;48.764;9.178;2022-09-13T06:00:26;2.33;;;2.10;;
33792;SDS011;20105;48.764;9.178;2022-09-13T06:02:52;1.93;;;1.83;;
33792;SDS011;20105;48.764;9.178;2022-09-13T06:05:17;2.83;;;2.10;;
33792;SDS011;20105;48.764;9.178;2022-09-13T06:07:43;2.63;;;2.43;;
33792;SDS011;20105;48.764;9.178;2022-09-13T06:10:09;6.30;;;2.70;;
33792;SDS011;20105;48.764;9.178;2022-09-13T06:12:35;4.00;;;2.93;;
33792;SDS011;20105;48.764;9.178;2022-09-13T06:15:02;2.77;;;2.33;;
33792;SDS011;20105;48.764;9.178;2022-09-13T06:17:28;2.80;;;2.60;;
33792;SDS011;20105;48.764;9.178;2022-09-13T06:19:53;3.10;;;2.70;;
33792;SDS011;20105;48.764;9.178;2022-09-13T06:22:20;2.80;;;2.60;;
33792;SDS011;20105;48.764;9.178;2022-09-13T06:24:46;3.53;;;2.60;;
33792;SDS011;20105;48.764;9.178;2022-09-13T06:27:12;4.93;;;2.77;;
33792;SDS011;20105;48.764;9.178;2022-09-13T06:29:37;7.13;;;2.20;;
33792;SDS011;20105;48.764;9.178;2022-09-13T06:32:03;3.40;;;2.43;;
33792;SDS011;20105;48.764;9.178;2022-09-13T06:34:29;5.03;;;2.87;;
33792;SDS011;20105;48.764;9.178;2022-09-13T06:36:54;2.97;;;2.67;;
33792;SDS011;20105;48.764;9.178;2022-09-13T06:39:20;2.87;;;2.60;;
33792;SDS011;20105;48.764;9.178;2022-09-13T06:41:45;5.77;;;3.27;;
33792;SDS011;20105;48.764;9.178;2022-09-13T06:44:11;4.00;;;2.63;;
33792;SDS011;20105;48.764;9.178;2022-09-13T06:46:36;2.90;;;2.70;;
33792;SDS011;20105;48.764;9.178;2022-09-13T06:49:03;2.83;;;2.63;;
33792;SDS011;20105;48.764;9.178;2022-09-13T06:51:30;4.53;;;2.30;;
33792;SDS011;20105;48.764;9.178;2022-09-13T06:53:57;5.67;;;2.87;;
33792;SDS011;20105;48.764;9.178;2022-09-13T06:56:44;2.70;;;2.50;;
33792;SDS011;20105;48.764;9.178;2022-09-13T06:59:09;3.63;;;2.50;;
33792;SDS011;20105;48.764;9.178;2022-09-13T07:01:36;3.17;;;2.93;;
33792;SDS011;20105;48.764;9.178;2022-09-13T07:04:04;3.73;;;2.73;;
33792;SDS011;20105;48.764;9.178;2022-09-13T07:06:33;3.40;;;2.70;;
33792;SDS011;20105;48.764;9.178;2022-09-13T07:09:01;2.93;;;2.73;;
33792;SDS011;20105;48.764;9.178;2022-09-13T07:11:30;4.70;;;2.90;;
33792;SDS011;20105;48.764;9.178;2022-09-13T07:13:57;4.27;;;3.10;;
33792;SDS011;20105;48.764;9.178;2022-09-13T07:16:26;3.80;;;3.23;;
33792;SDS011;20105;48.764;9.178;2022-09-13T07:18:54;3.57;;;2.90;;
33792;SDS011;20105;48.764;9.178;2022-09-13T07:21:24;5.33;;;3.20;;
33792;SDS011;20105;48.764;9.178;2022-09-13T07:23:51;4.83;;;3.00;;
33792;SDS011;20105;48.764;9.178;2022-09-13T07:26:17;4.87;;;3.70;;
33792;SDS011;20105;48.764;9.178;2022-09-13T07:28:44;4.50;;;2.50;;
33792;SDS011;20105;48.764;9.178;2022-09-13T07:31:15;4.33;;;3.10;;
33792;SDS011;20105;48.764;9.178;2022-09-13T07:34:02;3.90;;;3.50;;
33792;SDS011;20105;48.764;9.178;2022-09-13T07:36:47;5.40;;;2.50;;
33792;SDS011;20105;48.764;9.178;2022-09-13T07:39:14;4.00;;;3.00;;
33792;SDS011;20105;48.764;9.178;2022-09-13T07:41:41;6.90;;;2.60;;
33792;SDS011;20105;48.764;9.178;2022-09-13T07:44:08;9.63;;;3.17;;
33792;SDS011;20105;48.764;9.178;2022-09-13T07:46:35;2.90;;;2.47;;
33792;SDS011;20105;48.764;9.178;2022-09-13T07:49:04;2.83;;;1.97;;
33792;SDS011;20105;48.764;9.178;2022-09-13T07:51:31;5.80;;;2.70;;
33792;SDS011;20105;48.764;9.178;2022-09-13T07:54:00;2.23;;;2.13;;
33792;SDS011;20105;48.764;9.178;2022-09-13T07:56:27;4.83;;;2.60;;
33792;SDS011;20105;48.764;9.178;2022-09-13T07:58:58;2.70;;;2.47;;
33792;SDS011;20105;48.764;9.178;2022-09-13T08:01:25;2.67;;;2.47;;
33792;SDS011;20105;48.764;9.178;2022-09-13T08:04:13;3.67;;;2.60;;
33792;SDS011;20105;48.764;9.178;2022-09-13T08:06:41;3.80;;;2.57;;
33792;SDS011;20105;48.764;9.178;2022-09-13T08:09:07;3.93;;;2.17;;
33792;SDS011;20105;48.764;9.178;2022-09-13T08:11:41;2.50;;;2.07;;
33792;SDS011;20105;48.764;9.178;2022-09-13T08:14:09;5.20;;;2.40;;
33792;SDS011;20105;48.764;9.178;2022-09-13T08:16:36;2.60;;;2.40;;
33792;SDS011;20105;48.764;9.178;2022-09-13T08:19:04;2.83;;;2.63;;
33792;SDS011;20105;48.764;9.178;2022-09-13T08:21:31;5.00;;;3.60;;
33792;SDS011;20105;48.764;9.178;2022-09-13T08:23:58;4.50;;;3.20;;
33792;SDS011;20105;48.764;9.178;2022-09-13T08:26:25;6.80;;;3.20;;
33792;SDS011;20105;48.764;9.178;2022-09-13T08:28:55;3.97;;;3.40;;
33792;SDS011;20105;48.764;9.178;2022-09-13T08:31:22;5.00;;;2.70;;
33792;SDS011;20105;48.764;9.178;2022-09-13T08:33:50;8.77;;;2.50;;
33792;SDS011;20105;48.764;9.178;2022-09-13T08:36:16;2.27;;;2.07;;
33792;SDS011;20105;48.764;9.178;2022-09-13T08:38:51;2.80;;;2.60;;
33792;SDS011;20105;48.764;9.178;2022-09-13T08:41:28;5.67;;;2.93;;
33792;SDS011;20105;48.764;9.178;2022-09-13T08:49:33;7.43;;;2.50;;
33792;SDS011;20105;48.764;9.178;2022-09-13T08:52:11;5.57;;;1.90;;
33792;SDS011;20105;48.764;9.178;2022-09-13T08:54:55;2.93;;;1.90;;
33792;SDS011;20105;48.764;9.178;2022-09-13T09:02:53;7.67;;;2.50;;
33792;SDS011;20105;48.764;9.178;2022-09-13T09:05:48;4.23;;;2.13;;
33792;SDS011;20105;48.764;9.178;2022-09-13T09:08:21;3.13;;;2.70;;
33792;SDS011;20105;48.764;9.178;2022-09-13T09:10:55;4.27;;;2.90;;
33792;SDS011;20105;48.764;9.178;2022-09-13T09:13:36;3.90;;;2.93;;
33792;SDS011;20105;48.764;9.178;2022-09-13T09:16:40;5.10;;;2.93;;
33792;SDS011;20105;48.764;9.178;2022-09-13T09:19:28;14.13;;;3.40;;
33792;SDS011;20105;48.764;9.178;2022-09-13T09:22:03;2.70;;;2.20;;
33792;SDS011;20105;48.764;9.178;2022-09-13T09:24:35;3.00;;;2.20;;
33792;SDS011;20105;48.764;9.178;2022-09-13T09:27:07;5.47;;;3.00;;
33792;SDS011;20105;48.764;9.178;2022-09-13T09:29:39;5.70;;;2.90;;
33792;SDS011;20105;48.764;9.178;2022-09-13T09:37:21;4.27;;;2.33;;
33792;SDS011;20105;48.764;9.178;2022-09-13T09:39:50;2.40;;;2.20;;
33792;SDS011;20105;48.764;9.178;2022-09-13T09:42:21;2.80;;;2.50;;
33792;SDS011;20105;48.764;9.178;2022-09-13T09:44:51;7.13;;;2.70;;
33792;SDS011;20105;48.764;9.178;2022-09-13T09:47:30;2.80;;;2.27;;
33792;SDS011;20105;48.764;9.178;2022-09-13T09:52:54;3.03;;;2.83;;
33792;SDS011;20105;48.764;9.178;2022-09-13T09:55:31;3.43;;;2.53;;
33792;SDS011;20105;48.764;9.178;2022-09-13T09:58:04;6.30;;;2.70;;
33792;SDS011;20105;48.764;9.178;2022-09-13T10:00:34;7.23;;;2.90;;
33792;SDS011;20105;48.764;9.178;2022-09-13T10:03:03;3.50;;;2.17;;
33792;SDS011;20105;48.764;9.178;2022-09-13T10:05:31;2.43;;;1.90;;
33792;SDS011;20105;48.764;9.178;2022-09-13T10:08:00;4.67;;;2.80;;
33792;SDS011;20105;48.764;9.178;2022-09-13T10:10:41;4.27;;;2.33;;
33792;SDS011;20105;48.764;9.178;2022-09-13T10:13:14;6.60;;;2.50;;
33792;SDS011;20105;48.764;9.178;2022-09-13T10:15:51;2.97;;;2.17;;
33792;SDS011;20105;48.764;9.178;2022-09-13T10:18:19;9.97;;;2.30;;
33792;SDS011;20105;48.764;9.178;2022-09-13T10:23:48;8.70;;;2.20;;
33792;SDS011;20105;48.764;9.178;2022-09-13T10:26:18;4.43;;;2.03;;
33792;SDS011;20105;48.764;9.178;2022-09-13T10:28:55;6.17;;;2.60;;
33792;SDS011;20105;48.764;9.178;2022-09-13T10:31:39;4.30;;;2.07;;
33792;SDS011;20105;48.764;9.178;2022-09-13T10:34:28;3.20;;;1.87;;
33792;SDS011;20105;48.764;9.178;2022-09-13T10:37:01;3.27;;;1.47;;
33792;SDS011;20105;48.764;9.178;2022-09-13T10:39:27;2.40;;;1.73;;
33792;SDS011;20105;48.764;9.178;2022-09-13T10:44:27;2.20;;;1.63;;
33792;SDS011;20105;48.764;9.178;2022-09-13T10:47:17;3.00;;;1.77;;
33792;SDS011;20105;48.764;9.178;2022-09-13T10:52:24;8.00;;;2.70;;
33792;SDS011;20105;48.764;9.178;2022-09-13T10:54:53;2.60;;;1.67;;
33792;SDS011;20105;48.764;9.178;2022-09-13T10:57:35;2.47;;;2.27;;
33792;SDS011;20105;48.764;9.178;2022-09-13T11:00:04;2.70;;;1.70;;
33792;SDS011;20105;48.764;9.178;2022-09-13T11:05:03;1.90;;;1.60;;
33792;SDS011;20105;48.764;9.178;2022-09-13T11:07:44;2.67;;;1.87;;
33792;SDS011;20105;48.764;9.178;2022-09-13T11:16:10;3.03;;;1.90;;
33792;SDS011;20105;48.764;9.178;2022-09-13T11:18:57;3.23;;;1.53;;
33792;SDS011;20105;48.764;9.178;2022-09-13T11:27:34;1.63;;;1.30;;
33792;SDS011;20105;48.764;9.178;2022-09-13T11:33:02;2.00;;;1.70;;
33792;SDS011;20105;48.764;9.178;2022-09-13T11:35:48;1.60;;;1.50;;
33792;SDS011;20105;48.764;9.178;2022-09-13T11:41:23;1.30;;;1.20;;
33792;SDS011;20105;48.764;9.178;2022-09-13T11:54:58;2.37;;;1.57;;
33792;SDS011;20105;48.764;9.178;2022-09-13T11:57:34;1.70;;;1.30;;
33792;SDS011;20105;48.764;9.178;2022-09-13T12:00:21;1.63;;;1.53;;
33792;SDS011;20105;48.764;9.178;2022-09-13T12:03:55;1.00;;;0.90;;
33792;SDS011;20105;48.764;9.178;2022-09-13T12:05:55;1.50;;;1.40;;
33792;SDS011;20105;48.764;9.178;2022-09-13T12:08:26;1.50;;;1.40;;
33792;SDS011;20105;48.764;9.178;2022-09-13T12:11:10;4.43;;;1.70;;
33792;SDS011;20105;48.764;9.178;2022-09-13T12:13:44;1.53;;;1.27;;
33792;SDS011;20105;48.764;9.178;2022-09-13T12:16:15;1.90;;;1.27;;
33792;SDS011;20105;48.764;9.178;2022-09-13T12:18:47;1.23;;;1.10;;
33792;SDS011;20105;48.764;9.178;2022-09-13T12:21:25;3.20;;;1.20;;
33792;SDS011;20105;48.764;9.178;2022-09-13T12:29:38;1.00;;;0.90;;
33792;SDS011;20105;48.764;9.178;2022-09-13T12:32:02;1.07;;;1.07;;
33792;SDS011;20105;48.764;9.178;2022-09-13T12:34:53;1.80;;;1.03;;
33792;SDS011;20105;48.764;9.178;2022-09-13T12:43:15;1.40;;;1.17;;
33792;SDS011;20105;48.764;9.178;2022-09-13T12:52:00;1.23;;;1.20;;
33792;SDS011;20105;48.764;9.178;2022-09-13T13:00:41;4.13;;;1.20;;
33792;SDS011;20105;48.764;9.178;2022-09-13T13:03:29;1.30;;;1.00;;
33792;SDS011;20105;48.764;9.178;2022-09-13T13:06:14;1.27;;;0.73;;
33792;SDS011;20105;48.764;9.178;2022-09-13T13:09:03;1.33;;;1.17;;
33792;SDS011;20105;48.764;9.178;2022-09-13T13:11:43;0.80;;;0.80;;
33792;SDS011;20105;48.764;9.178;2022-09-13T13:20:37;1.50;;;0.87;;
33792;SDS011;20105;48.764;9.178;2022-09-13T13:29:16;0.70;;;0.70;;
33792;SDS011;20105;48.764;9.178;2022-09-13T13:32:03;0.90;;;0.90;;
33792;SDS011;20105;48.764;9.178;2022-09-13T13:34:42;1.10;;;1.00;;
33792;SDS011;20105;48.764;9.178;2022-09-13T13:39:36;1.50;;;0.80;;
33792;SDS011;20105;48.764;9.178;2022-09-13T13:45:22;1.50;;;0.70;;
33792;SDS011;20105;48.764;9.178;2022-09-13T13:48:13;0.70;;;0.70;;
33792;SDS011;20105;48.764;9.178;2022-09-13T13:53:35;1.27;;;1.00;;
33792;SDS011;20105;48.764;9.178;2022-09-13T13:56:07;1.57;;;1.00;;
33792;SDS011;20105;48.764;9.178;2022-09-13T13:59:12;1.03;;;1.03;;
33792;SDS011;20105;48.764;9.178;2022-09-13T14:01:43;2.57;;;0.60;;
33792;SDS011;20105;48.764;9.178;2022-09-13T14:07:42;0.80;;;0.80;;
33792;SDS011;20105;48.764;9.178;2022-09-13T14:10:00;0.87;;;0.87;;
33792;SDS011;20105;48.764;9.178;2022-09-13T14:15:28;4.63;;;1.07;;
33792;SDS011;20105;48.764;9.178;2022-09-13T14:18:49;1.87;;;0.90;;
33792;SDS011;20105;48.764;9.178;2022-09-13T14:21:08;1.37;;;0.97;;
33792;SDS011;20105;48.764;9.178;2022-09-13T14:23:47;0.70;;;0.70;;
33792;SDS011;20105;48.764;9.178;2022-09-13T14:26:13;1.60;;;0.70;;
33792;SDS011;20105;48.764;9.178;2022-09-13T14:28:38;0.67;;;0.57;;
33792;SDS011;20105;48.764;9.178;2022-09-13T14:31:05;0.70;;;0.70;;
33792;SDS011;20105;48.764;9.178;2022-09-13T14:33:31;0.83;;;0.80;;
33792;SDS011;20105;48.764;9.178;2022-09-13T14:36:01;0.50;;;0.50;;
33792;SDS011;20105;48.764;9.178;2022-09-13T14:38:32;0.60;;;0.60;;
33792;SDS011;20105;48.764;9.178;2022-09-13T14:41:13;1.90;;;0.87;;
33792;SDS011;20105;48.764;9.178;2022-09-13T14:43:42;2.00;;;0.60;;
33792;SDS011;20105;48.764;9.178;2022-09-13T14:46:54;1.20;;;0.70;;
33792;SDS011;20105;48.764;9.178;2022-09-13T14:49:08;0.73;;;0.73;;
33792;SDS011;20105;48.764;9.178;2022-09-13T14:52:05;0.80;;;0.80;;
33792;SDS011;20105;48.764;9.178;2022-09-13T14:57:05;1.47;;;0.80;;
33792;SDS011;20105;48.764;9.178;2022-09-13T14:59:42;0.60;;;0.60;;
33792;SDS011;20105;48.764;9.178;2022-09-13T15:02:15;0.70;;;0.60;;
33792;SDS011;20105;48.764;9.178;2022-09-13T15:04:46;0.50;;;0.50;;
33792;SDS011;20105;48.764;9.178;2022-09-13T15:07:20;0.53;;;0.53;;
33792;SDS011;20105;48.764;9.178;2022-09-13T15:10:41;0.77;;;0.77;;
33792;SDS011;20105;48.764;9.178;2022-09-13T15:15:33;1.00;;;0.90;;
33792;SDS011;20105;48.764;9.178;2022-09-13T15:23:33;2.70;;;1.30;;
33792;SDS011;20105;48.764;9.178;2022-09-13T15:26:09;1.00;;;0.90;;
33792;SDS011;20105;48.764;9.178;2022-09-13T15:31:18;1.00;;;1.00;;
33792;SDS011;20105;48.764;9.178;2022-09-13T15:37:08;1.00;;;1.00;;
33792;SDS011;20105;48.764;9.178;2022-09-13T15:39:49;0.90;;;0.90;;
33792;SDS011;20105;48.764;9.178;2022-09-13T15:42:26;1.23;;;1.13;;
33792;SDS011;20105;48.764;9.178;2022-09-13T15:44:51;1.70;;;1.10;;
33792;SDS011;20105;48.764;9.178;2022-09-13T15:47:17;2.00;;;0.80;;
33792;SDS011;20105;48.764;9.178;2022-09-13T15:49:46;1.00;;;0.87;;
33792;SDS011;20105;48.764;9.178;2022-09-13T15:52:14;2.90;;;1.40;;
33792;SDS011;20105;48.764;9.178;2022-09-13T15:54:41;1.43;;;0.90;;
33792;SDS011;20105;48.764;9.178;2022-09-13T15:57:08;1.37;;;1.27;;
33792;SDS011;20105;48.764;9.178;2022-09-13T15:59:40;2.03;;;0.93;;
33792;SDS011;20105;48.764;9.178;2022-09-13T16:04:44;1.20;;;1.10;;
33792;SDS011;20105;48.764;9.178;2022-09-13T16:07:10;2.50;;;1.13;;
33792;SDS011;20105;48.764;9.178;2022-09-13T16:09:35;2.43;;;0.90;;
33792;SDS011;20105;48.764;9.178;2022-09-13T16:12:02;1.40;;;1.30;;
33792;SDS011;20105;48.764;9.178;2022-09-13T16:14:29;1.10;;;1.00;;
33792;SDS011;20105;48.764;9.178;2022-09-13T16:16:55;1.20;;;0.90;;
33792;SDS011;20105;48.764;9.178;2022-09-13T16:19:21;3.47;;;3.17;;
33792;SDS011;20105;48.764;9.178;2022-09-13T16:21:47;1.97;;;1.57;;
33792;SDS011;20105;48.764;9.178;2022-09-13T16:24:14;1.57;;;1.47;;
33792;SDS011;20105;48.764;9.178;2022-09-13T16:26:40;2.80;;;1.40;;
33792;SDS011;20105;48.764;9.178;2022-09-13T16:29:06;0.90;;;0.90;;
33792;SDS011;20105;48.764;9.178;2022-09-13T16:31:32;6.33;;;3.63;;
33792;SDS011;20105;48.764;9.178;2022-09-13T16:33:58;5.93;;;2.70;;
33792;SDS011;20105;48.764;9.178;2022-09-13T16:36:23;9.07;;;5.80;;
33792;SDS011;20105;48.764;9.178;2022-09-13T16:38:52;4.07;;;2.47;;
33792;SDS011;20105;48.764;9.178;2022-09-13T16:41:19;2.83;;;2.63;;
33792;SDS011;20105;48.764;9.178;2022-09-13T16:43:44;6.37;;;3.47;;
33792;SDS011;20105;48.764;9.178;2022-09-13T16:46:10;7.13;;;2.20;;
33792;SDS011;20105;48.764;9.178;2022-09-13T16:48:37;2.13;;;1.10;;
33792;SDS011;20105;48.764;9.178;2022-09-13T16:51:04;2.30;;;2.10;;
33792;SDS011;20105;48.764;9.178;2022-09-13T16:53:31;4.07;;;1.83;;
33792;SDS011;20105;48.764;9.178;2022-09-13T16:58:30;2.93;;;2.10;;
33792;SDS011;20105;48.764;9.178;2022-09-13T17:00:56;1.13;;;1.03;;
33792;SDS011;20105;48.764;9.178;2022-09-13T17:03:22;1.20;;;1.10;;
33792;SDS011;20105;48.764;9.178;2022-09-13T17:06:00;1.00;;;1.00;;
33792;SDS011;20105;48.764;9.178;2022-09-13T17:08:29;2.80;;;1.13;;
33792;SDS011;20105;48.764;9.178;2022-09-13T17:10:56;1.27;;;1.20;;
33792;SDS011;20105;48.764;9.178;2022-09-13T17:13:21;1.60;;;1.13;;
33792;SDS011;20105;48.764;9.178;2022-09-13T17:15:48;2.47;;;1.30;;
33792;SDS011;20105;48.764;9.178;2022-09-13T17:18:17;8.03;;;2.10;;
33792;SDS011;20105;48.764;9.178;2022-09-13T17:20:45;3.00;;;0.90;;
33792;SDS011;20105;48.764;9.178;2022-09-13T17:23:13;1.53;;;1.30;;
33792;SDS011;20105;48.764;9.178;2022-09-13T17:25:41;2.10;;;1.20;;
33792;SDS011;20105;48.764;9.178;2022-09-13T17:28:10;2.20;;;1.30;;
33792;SDS011;20105;48.764;9.178;2022-09-13T17:30:36;4.80;;;1.33;;
33792;SDS011;20105;48.764;9.178;2022-09-13T17:33:02;1.60;;;1.30;;
33792;SDS011;20105;48.764;9.178;2022-09-13T17:35:33;1.60;;;1.40;;
33792;SDS011;20105;48.764;9.178;2022-09-13T17:37:59;2.37;;;1.17;;
33792;SDS011;20105;48.764;9.178;2022-09-13T17:40:28;1.60;;;1.40;;
33792;SDS011;20105;48.764;9.178;2022-09-13T17:42:54;2.23;;;1.47;;
33792;SDS011;20105;48.764;9.178;2022-09-13T17:45:25;1.50;;;1.40;;
33792;SDS011;20105;48.764;9.178;2022-09-13T17:47:52;2.77;;;1.23;;
33792;SDS011;20105;48.764;9.178;2022-09-13T17:50:20;1.47;;;1.37;;
33792;SDS011;20105;48.764;9.178;2022-09-13T17:52:45;2.23;;;1.30;;
33792;SDS011;20105;48.764;9.178;2022-09-13T17:55:13;1.50;;;1.40;;
33792;SDS011;20105;48.764;9.178;2022-09-13T17:57:39;2.27;;;1.37;;
33792;SDS011;20105;48.764;9.178;2022-09-13T18:00:05;2.80;;;2.07;;
33792;SDS011;20105;48.764;9.178;2022-09-13T18:02:37;1.70;;;1.60;;
33792;SDS011;20105;48.764;9.178;2022-09-13T18:05:03;7.90;;;1.40;;
33792;SDS011;20105;48.764;9.178;2022-09-13T18:07:29;1.57;;;1.47;;
33792;SDS011;20105;48.764;9.178;2022-09-13T18:09:55;1.80;;;1.50;;
33792;SDS011;20105;48.764;9.178;2022-09-13T18:12:20;1.67;;;1.57;;